sensor_id;sensor_type;location;lat;lon;timestamp;temperature;humidity
46356;DHT22;32066;49.474;11.106;2024-02-15T00:00:13;12.00;99.90
46356;DHT22;32066;49.474;11.106;2024-02-15T00:02:42;12.00;99.90
46356;DHT22;32066;49.474;11.106;2024-02-15T00:05:11;12.00;99.90
46356;DHT22;32066;49.474;11.106;2024-02-15T00:07:40;12.00;99.90
46356;DHT22;32066;49.474;11.106;2024-02-15T00:10:09;12.00;99.90
46356;DHT22;32066;49.474;11.106;2024-02-15T00:12:38;12.00;99.90
46356;DHT22;32066;49.474;11.106;2024-02-15T00:15:07;12.00;99.90
46356;DHT22;32066;49.474;11.106;2024-02-15T00:17:39;12.00;99.90
46356;DHT22;32066;49.474;11.106;2024-02-15T00:20:08;12.00;99.90
46356;DHT22;32066;49.474;11.106;2024-02-15T00:22:38;12.00;99.90
46356;DHT22;32066;49.474;11.106;2024-02-15T00:25:08;12.00;99.90
46356;DHT22;32066;49.474;11.106;2024-02-15T00:27:37;12.00;99.90
46356;DHT22;32066;49.474;11.106;2024-02-15T00:30:08;12.00;99.90
46356;DHT22;32066;49.474;11.106;2024-02-15T00:32:39;12.00;99.90
46356;DHT22;32066;49.474;11.106;2024-02-15T00:35:08;12.00;99.90
46356;DHT22;32066;49.474;11.106;2024-02-15T00:37:37;12.00;99.90
46356;DHT22;32066;49.474;11.106;2024-02-15T00:40:07;12.00;99.90
46356;DHT22;32066;49.474;11.106;2024-02-15T00:42:36;12.00;99.90
46356;DHT22;32066;49.474;11.106;2024-02-15T00:45:05;12.00;99.90
46356;DHT22;32066;49.474;11.106;2024-02-15T00:47:34;12.00;99.90
46356;DHT22;32066;49.474;11.106;2024-02-15T00:50:08;12.00;99.90
46356;DHT22;32066;49.474;11.106;2024-02-15T00:52:36;11.90;99.90
46356;DHT22;32066;49.474;11.106;2024-02-15T00:55:05;11.90;99.90
46356;DHT22;32066;49.474;11.106;2024-02-15T00:57:34;11.90;99.90
46356;DHT22;32066;49.474;11.106;2024-02-15T01:00:04;12.00;99.90
46356;DHT22;32066;49.474;11.106;2024-02-15T01:02:34;11.90;99.90
46356;DHT22;32066;49.474;11.106;2024-02-15T01:05:07;11.90;99.90
46356;DHT22;32066;49.474;11.106;2024-02-15T01:07:36;11.90;99.90
46356;DHT22;32066;49.474;11.106;2024-02-15T01:10:06;11.90;99.90
46356;DHT22;32066;49.474;11.106;2024-02-15T01:12:35;11.90;99.90
46356;DHT22;32066;49.474;11.106;2024-02-15T01:15:04;11.90;99.90
46356;DHT22;32066;49.474;11.106;2024-02-15T01:17:33;11.90;99.90
46356;DHT22;32066;49.474;11.106;2024-02-15T01:20:02;11.90;99.90
46356;DHT22;32066;49.474;11.106;2024-02-15T01:22:35;11.90;99.90
46356;DHT22;32066;49.474;11.106;2024-02-15T01:25:04;11.90;99.90
46356;DHT22;32066;49.474;11.106;2024-02-15T01:27:32;11.90;99.90
46356;DHT22;32066;49.474;11.106;2024-02-15T01:30:01;11.90;99.90
46356;DHT22;32066;49.474;11.106;2024-02-15T01:32:30;11.90;99.90
46356;DHT22;32066;49.474;11.106;2024-02-15T01:34:59;11.90;99.90
46356;DHT22;32066;49.474;11.106;2024-02-15T01:37:28;11.90;99.90
46356;DHT22;32066;49.474;11.106;2024-02-15T01:39:59;11.90;99.90
46356;DHT22;32066;49.474;11.106;2024-02-15T01:42:27;11.90;99.90
46356;DHT22;32066;49.474;11.106;2024-02-15T01:44:56;11.90;99.90
46356;DHT22;32066;49.474;11.106;2024-02-15T01:47:25;11.90;99.90
46356;DHT22;32066;49.474;11.106;2024-02-15T01:49:54;11.90;99.90
46356;DHT22;32066;49.474;11.106;2024-02-15T01:52:23;11.90;99.90
46356;DHT22;32066;49.474;11.106;2024-02-15T01:54:53;12.00;99.90
46356;DHT22;32066;49.474;11.106;2024-02-15T01:57:24;11.90;99.90
46356;DHT22;32066;49.474;11.106;2024-02-15T01:59:53;11.90;99.90
46356;DHT22;32066;49.474;11.106;2024-02-15T02:02:22;11.90;99.90
46356;DHT22;32066;49.474;11.106;2024-02-15T02:04:53;11.90;99.90
46356;DHT22;32066;49.474;11.106;2024-02-15T02:07:22;11.90;99.90
46356;DHT22;32066;49.474;11.106;2024-02-15T02:09:51;11.90;99.90
46356;DHT22;32066;49.474;11.106;2024-02-15T02:12:20;11.90;99.90
46356;DHT22;32066;49.474;11.106;2024-02-15T02:14:53;11.90;99.90
46356;DHT22;32066;49.474;11.106;2024-02-15T02:17:21;11.90;99.90
46356;DHT22;32066;49.474;11.106;2024-02-15T02:19:50;11.90;99.90
46356;DHT22;32066;49.474;11.106;2024-02-15T02:22:19;11.90;99.90
46356;DHT22;32066;49.474;11.106;2024-02-15T02:25:01;11.90;99.90
46356;DHT22;32066;49.474;11.106;2024-02-15T02:27:32;11.90;99.90
46356;DHT22;32066;49.474;11.106;2024-02-15T02:30:03;11.90;99.90
46356;DHT22;32066;49.474;11.106;2024-02-15T02:32:35;11.90;99.90
46356;DHT22;32066;49.474;11.106;2024-02-15T02:35:05;11.90;99.90
46356;DHT22;32066;49.474;11.106;2024-02-15T02:37:37;11.90;99.90
46356;DHT22;32066;49.474;11.106;2024-02-15T02:40:09;11.90;99.90
46356;DHT22;32066;49.474;11.106;2024-02-15T02:42:48;11.90;99.90
46356;DHT22;32066;49.474;11.106;2024-02-15T02:45:16;11.90;99.90
46356;DHT22;32066;49.474;11.106;2024-02-15T02:47:45;11.90;99.90
46356;DHT22;32066;49.474;11.106;2024-02-15T02:50:15;11.90;99.90
46356;DHT22;32066;49.474;11.106;2024-02-15T02:52:43;11.90;99.90
46356;DHT22;32066;49.474;11.106;2024-02-15T02:55:16;11.90;99.90
46356;DHT22;32066;49.474;11.106;2024-02-15T02:57:46;11.90;99.90
46356;DHT22;32066;49.474;11.106;2024-02-15T03:00:16;11.90;99.90
46356;DHT22;32066;49.474;11.106;2024-02-15T03:02:46;11.90;99.90
46356;DHT22;32066;49.474;11.106;2024-02-15T03:05:15;11.90;99.90
46356;DHT22;32066;49.474;11.106;2024-02-15T03:07:46;11.90;99.90
46356;DHT22;32066;49.474;11.106;2024-02-15T03:10:20;11.90;99.90
46356;DHT22;32066;49.474;11.106;2024-02-15T03:12:50;11.90;99.90
46356;DHT22;32066;49.474;11.106;2024-02-15T03:15:18;11.90;99.90
46356;DHT22;32066;49.474;11.106;2024-02-15T03:17:48;11.90;99.90
46356;DHT22;32066;49.474;11.106;2024-02-15T03:20:17;11.90;99.90
46356;DHT22;32066;49.474;11.106;2024-02-15T03:22:53;11.90;99.90
46356;DHT22;32066;49.474;11.106;2024-02-15T03:25:25;11.90;99.90
46356;DHT22;32066;49.474;11.106;2024-02-15T03:27:56;11.90;99.90
46356;DHT22;32066;49.474;11.106;2024-02-15T03:30:26;12.00;99.90
46356;DHT22;32066;49.474;11.106;2024-02-15T03:32:57;11.90;99.90
46356;DHT22;32066;49.474;11.106;2024-02-15T03:35:27;11.80;99.90
46356;DHT22;32066;49.474;11.106;2024-02-15T03:37:57;11.80;99.90
46356;DHT22;32066;49.474;11.106;2024-02-15T03:40:29;11.90;99.90
46356;DHT22;32066;49.474;11.106;2024-02-15T03:42:58;11.80;99.90
46356;DHT22;32066;49.474;11.106;2024-02-15T03:45:27;11.90;99.90
46356;DHT22;32066;49.474;11.106;2024-02-15T03:47:56;11.80;99.90
46356;DHT22;32066;49.474;11.106;2024-02-15T03:50:25;11.90;99.90
46356;DHT22;32066;49.474;11.106;2024-02-15T03:52:54;11.80;99.90
46356;DHT22;32066;49.474;11.106;2024-02-15T03:55:28;11.80;99.90
46356;DHT22;32066;49.474;11.106;2024-02-15T03:57:56;11.80;99.90
46356;DHT22;32066;49.474;11.106;2024-02-15T04:00:25;11.80;99.90
46356;DHT22;32066;49.474;11.106;2024-02-15T04:02:53;11.90;99.90
46356;DHT22;32066;49.474;11.106;2024-02-15T04:05:22;11.90;99.90
46356;DHT22;32066;49.474;11.106;2024-02-15T04:07:51;11.80;99.90
46356;DHT22;32066;49.474;11.106;2024-02-15T04:10:19;11.80;99.90
46356;DHT22;32066;49.474;11.106;2024-02-15T04:12:51;11.80;99.90
46356;DHT22;32066;49.474;11.106;2024-02-15T04:15:20;11.80;99.90
46356;DHT22;32066;49.474;11.106;2024-02-15T04:17:48;11.80;99.90
46356;DHT22;32066;49.474;11.106;2024-02-15T04:20:21;11.80;99.90
46356;DHT22;32066;49.474;11.106;2024-02-15T04:22:50;11.80;99.90
46356;DHT22;32066;49.474;11.106;2024-02-15T04:25:20;11.80;99.90
46356;DHT22;32066;49.474;11.106;2024-02-15T04:27:56;11.80;99.90
46356;DHT22;32066;49.474;11.106;2024-02-15T04:30:29;11.80;99.90
46356;DHT22;32066;49.474;11.106;2024-02-15T04:33:00;11.80;99.90
46356;DHT22;32066;49.474;11.106;2024-02-15T04:35:29;11.80;99.90
46356;DHT22;32066;49.474;11.106;2024-02-15T04:37:58;11.80;99.90
46356;DHT22;32066;49.474;11.106;2024-02-15T04:40:26;11.70;99.90
46356;DHT22;32066;49.474;11.106;2024-02-15T04:42:58;11.80;99.90
46356;DHT22;32066;49.474;11.106;2024-02-15T04:45:30;11.70;99.90
46356;DHT22;32066;49.474;11.106;2024-02-15T04:47:59;11.70;99.90
46356;DHT22;32066;49.474;11.106;2024-02-15T04:50:28;11.70;99.90
46356;DHT22;32066;49.474;11.106;2024-02-15T04:52:57;11.70;99.90
46356;DHT22;32066;49.474;11.106;2024-02-15T04:55:26;11.70;99.90
46356;DHT22;32066;49.474;11.106;2024-02-15T04:57:59;11.70;99.90
46356;DHT22;32066;49.474;11.106;2024-02-15T05:00:30;11.70;99.90
46356;DHT22;32066;49.474;11.106;2024-02-15T05:02:58;11.70;99.90
46356;DHT22;32066;49.474;11.106;2024-02-15T05:05:27;11.70;99.90
46356;DHT22;32066;49.474;11.106;2024-02-15T05:07:56;11.70;99.90
46356;DHT22;32066;49.474;11.106;2024-02-15T05:10:27;11.70;99.90
46356;DHT22;32066;49.474;11.106;2024-02-15T05:12:55;11.70;99.90
46356;DHT22;32066;49.474;11.106;2024-02-15T05:15:29;11.70;99.90
46356;DHT22;32066;49.474;11.106;2024-02-15T05:17:58;11.70;99.90
46356;DHT22;32066;49.474;11.106;2024-02-15T05:20:27;11.70;99.90
46356;DHT22;32066;49.474;11.106;2024-02-15T05:22:56;11.70;99.90
46356;DHT22;32066;49.474;11.106;2024-02-15T05:25:25;11.70;99.90
46356;DHT22;32066;49.474;11.106;2024-02-15T05:27:55;11.70;99.90
46356;DHT22;32066;49.474;11.106;2024-02-15T05:30:24;11.70;99.90
46356;DHT22;32066;49.474;11.106;2024-02-15T05:32:55;11.60;99.90
46356;DHT22;32066;49.474;11.106;2024-02-15T05:35:24;11.70;99.90
46356;DHT22;32066;49.474;11.106;2024-02-15T05:37:53;11.70;99.90
46356;DHT22;32066;49.474;11.106;2024-02-15T05:40:22;11.70;99.90
46356;DHT22;32066;49.474;11.106;2024-02-15T05:42:55;11.70;99.90
46356;DHT22;32066;49.474;11.106;2024-02-15T05:45:31;11.60;99.90
46356;DHT22;32066;49.474;11.106;2024-02-15T05:48:08;11.60;99.90
46356;DHT22;32066;49.474;11.106;2024-02-15T05:50:38;11.70;99.90
46356;DHT22;32066;49.474;11.106;2024-02-15T05:53:07;11.60;99.90
46356;DHT22;32066;49.474;11.106;2024-02-15T05:55:36;11.70;99.90
46356;DHT22;32066;49.474;11.106;2024-02-15T05:58:06;11.60;99.90
46356;DHT22;32066;49.474;11.106;2024-02-15T06:00:37;11.70;99.90
46356;DHT22;32066;49.474;11.106;2024-02-15T06:03:09;11.60;99.90
46356;DHT22;32066;49.474;11.106;2024-02-15T06:05:38;11.70;99.90
46356;DHT22;32066;49.474;11.106;2024-02-15T06:08:07;11.70;99.90
46356;DHT22;32066;49.474;11.106;2024-02-15T06:10:38;11.70;99.90
46356;DHT22;32066;49.474;11.106;2024-02-15T06:13:06;11.70;99.90
46356;DHT22;32066;49.474;11.106;2024-02-15T06:15:36;11.70;99.90
46356;DHT22;32066;49.474;11.106;2024-02-15T06:18:05;11.70;99.90
46356;DHT22;32066;49.474;11.106;2024-02-15T06:20:38;11.70;99.90
46356;DHT22;32066;49.474;11.106;2024-02-15T06:23:08;11.70;99.90
46356;DHT22;32066;49.474;11.106;2024-02-15T06:25:37;11.70;99.90
46356;DHT22;32066;49.474;11.106;2024-02-15T06:28:06;11.70;99.90
46356;DHT22;32066;49.474;11.106;2024-02-15T06:31:01;11.70;99.90
46356;DHT22;32066;49.474;11.106;2024-02-15T06:33:42;11.70;99.90
46356;DHT22;32066;49.474;11.106;2024-02-15T06:36:26;11.70;99.90
46356;DHT22;32066;49.474;11.106;2024-02-15T06:39:07;11.70;99.90
46356;DHT22;32066;49.474;11.106;2024-02-15T06:41:48;11.70;99.90
46356;DHT22;32066;49.474;11.106;2024-02-15T06:44:18;11.70;99.90
46356;DHT22;32066;49.474;11.106;2024-02-15T06:46:49;11.70;99.90
46356;DHT22;32066;49.474;11.106;2024-02-15T06:49:18;11.70;99.90
46356;DHT22;32066;49.474;11.106;2024-02-15T06:51:50;11.70;99.90
46356;DHT22;32066;49.474;11.106;2024-02-15T06:54:20;11.70;99.90
46356;DHT22;32066;49.474;11.106;2024-02-15T06:56:49;11.70;99.90
46356;DHT22;32066;49.474;11.106;2024-02-15T06:59:20;11.70;99.90
46356;DHT22;32066;49.474;11.106;2024-02-15T07:01:49;11.70;99.90
46356;DHT22;32066;49.474;11.106;2024-02-15T07:04:19;11.70;99.90
46356;DHT22;32066;49.474;11.106;2024-02-15T07:06:53;11.70;99.90
46356;DHT22;32066;49.474;11.106;2024-02-15T07:09:22;11.70;99.90
46356;DHT22;32066;49.474;11.106;2024-02-15T07:11:51;11.70;99.90
46356;DHT22;32066;49.474;11.106;2024-02-15T07:14:20;11.70;99.90
46356;DHT22;32066;49.474;11.106;2024-02-15T07:16:50;11.70;99.90
46356;DHT22;32066;49.474;11.106;2024-02-15T07:19:18;11.70;99.90
46356;DHT22;32066;49.474;11.106;2024-02-15T07:21:47;11.70;99.90
46356;DHT22;32066;49.474;11.106;2024-02-15T07:24:19;11.70;99.90
46356;DHT22;32066;49.474;11.106;2024-02-15T07:26:48;11.70;99.90
46356;DHT22;32066;49.474;11.106;2024-02-15T07:29:18;11.70;99.90
46356;DHT22;32066;49.474;11.106;2024-02-15T07:31:48;11.70;99.90
46356;DHT22;32066;49.474;11.106;2024-02-15T07:34:17;11.70;99.90
46356;DHT22;32066;49.474;11.106;2024-02-15T07:36:46;11.80;99.90
46356;DHT22;32066;49.474;11.106;2024-02-15T07:39:14;11.70;99.90
46356;DHT22;32066;49.474;11.106;2024-02-15T07:41:51;11.70;99.90
46356;DHT22;32066;49.474;11.106;2024-02-15T07:44:20;11.70;99.90
46356;DHT22;32066;49.474;11.106;2024-02-15T07:46:49;11.80;99.90
46356;DHT22;32066;49.474;11.106;2024-02-15T07:49:19;11.80;99.90
46356;DHT22;32066;49.474;11.106;2024-02-15T07:51:48;11.80;99.90
46356;DHT22;32066;49.474;11.106;2024-02-15T07:54:21;11.80;99.90
46356;DHT22;32066;49.474;11.106;2024-02-15T07:56:52;11.80;99.90
46356;DHT22;32066;49.474;11.106;2024-02-15T07:59:21;11.80;99.90
46356;DHT22;32066;49.474;11.106;2024-02-15T08:01:50;11.80;99.90
46356;DHT22;32066;49.474;11.106;2024-02-15T08:04:19;11.80;99.90
46356;DHT22;32066;49.474;11.106;2024-02-15T08:06:49;11.90;99.90
46356;DHT22;32066;49.474;11.106;2024-02-15T08:09:19;11.80;99.90
46356;DHT22;32066;49.474;11.106;2024-02-15T08:11:52;11.80;99.90
46356;DHT22;32066;49.474;11.106;2024-02-15T08:14:21;11.90;99.90
46356;DHT22;32066;49.474;11.106;2024-02-15T08:16:50;11.90;99.90
46356;DHT22;32066;49.474;11.106;2024-02-15T08:19:19;11.90;99.90
46356;DHT22;32066;49.474;11.106;2024-02-15T08:21:48;11.90;99.90
46356;DHT22;32066;49.474;11.106;2024-02-15T08:24:18;11.90;99.90
46356;DHT22;32066;49.474;11.106;2024-02-15T08:26:46;11.90;99.90
46356;DHT22;32066;49.474;11.106;2024-02-15T08:29:18;12.00;99.90
46356;DHT22;32066;49.474;11.106;2024-02-15T08:31:47;12.00;99.90
46356;DHT22;32066;49.474;11.106;2024-02-15T08:34:15;11.90;99.90
46356;DHT22;32066;49.474;11.106;2024-02-15T08:36:45;12.00;99.90
46356;DHT22;32066;49.474;11.106;2024-02-15T08:39:14;12.00;99.90
46356;DHT22;32066;49.474;11.106;2024-02-15T08:41:43;12.00;99.90
46356;DHT22;32066;49.474;11.106;2024-02-15T08:44:11;12.00;99.90
46356;DHT22;32066;49.474;11.106;2024-02-15T08:46:44;12.10;99.90
46356;DHT22;32066;49.474;11.106;2024-02-15T08:49:13;12.10;99.90
46356;DHT22;32066;49.474;11.106;2024-02-15T08:51:42;12.10;99.90
46356;DHT22;32066;49.474;11.106;2024-02-15T08:54:11;12.10;99.90
46356;DHT22;32066;49.474;11.106;2024-02-15T08:56:39;12.10;99.90
46356;DHT22;32066;49.474;11.106;2024-02-15T08:59:09;12.10;99.90
46356;DHT22;32066;49.474;11.106;2024-02-15T09:01:37;12.10;99.90
46356;DHT22;32066;49.474;11.106;2024-02-15T09:04:09;12.10;99.90
46356;DHT22;32066;49.474;11.106;2024-02-15T09:06:38;12.20;99.90
46356;DHT22;32066;49.474;11.106;2024-02-15T09:09:08;12.20;99.90
46356;DHT22;32066;49.474;11.106;2024-02-15T09:11:37;12.20;99.90
46356;DHT22;32066;49.474;11.106;2024-02-15T09:14:06;12.20;99.90
46356;DHT22;32066;49.474;11.106;2024-02-15T09:16:35;12.20;99.90
46356;DHT22;32066;49.474;11.106;2024-02-15T09:19:07;12.20;99.90
46356;DHT22;32066;49.474;11.106;2024-02-15T09:21:36;12.30;99.90
46356;DHT22;32066;49.474;11.106;2024-02-15T09:24:05;12.30;99.90
46356;DHT22;32066;49.474;11.106;2024-02-15T09:26:34;12.30;99.90
46356;DHT22;32066;49.474;11.106;2024-02-15T09:29:02;12.30;99.90
46356;DHT22;32066;49.474;11.106;2024-02-15T09:31:31;12.40;99.90
46356;DHT22;32066;49.474;11.106;2024-02-15T09:34:00;12.40;99.90
46356;DHT22;32066;49.474;11.106;2024-02-15T09:36:36;12.40;99.90
46356;DHT22;32066;49.474;11.106;2024-02-15T09:39:05;12.40;99.90
46356;DHT22;32066;49.474;11.106;2024-02-15T09:41:34;12.50;99.90
46356;DHT22;32066;49.474;11.106;2024-02-15T09:44:03;12.50;99.90
46356;DHT22;32066;49.474;11.106;2024-02-15T09:46:35;12.50;99.90
46356;DHT22;32066;49.474;11.106;2024-02-15T09:49:04;12.60;99.90
46356;DHT22;32066;49.474;11.106;2024-02-15T09:51:36;12.60;99.90
46356;DHT22;32066;49.474;11.106;2024-02-15T09:54:06;12.60;99.90
46356;DHT22;32066;49.474;11.106;2024-02-15T09:56:37;12.70;99.90
46356;DHT22;32066;49.474;11.106;2024-02-15T09:59:06;12.70;99.90
46356;DHT22;32066;49.474;11.106;2024-02-15T10:01:37;12.80;99.90
46356;DHT22;32066;49.474;11.106;2024-02-15T10:04:06;12.80;99.90
46356;DHT22;32066;49.474;11.106;2024-02-15T10:06:43;12.90;99.90
46356;DHT22;32066;49.474;11.106;2024-02-15T10:09:29;12.90;99.90
46356;DHT22;32066;49.474;11.106;2024-02-15T10:12:00;12.90;99.90
46356;DHT22;32066;49.474;11.106;2024-02-15T10:14:33;13.00;99.90
46356;DHT22;32066;49.474;11.106;2024-02-15T10:17:08;13.00;99.90
46356;DHT22;32066;49.474;11.106;2024-02-15T10:19:39;12.90;99.90
46356;DHT22;32066;49.474;11.106;2024-02-15T10:22:14;13.10;99.90
46356;DHT22;32066;49.474;11.106;2024-02-15T10:27:11;13.20;99.90
46356;DHT22;32066;49.474;11.106;2024-02-15T10:29:39;13.20;99.90
46356;DHT22;32066;49.474;11.106;2024-02-15T10:34:43;13.30;99.90
46356;DHT22;32066;49.474;11.106;2024-02-15T10:37:15;13.40;99.90
46356;DHT22;32066;49.474;11.106;2024-02-15T10:39:46;13.40;99.90
46356;DHT22;32066;49.474;11.106;2024-02-15T10:42:16;13.50;99.90
46356;DHT22;32066;49.474;11.106;2024-02-15T10:44:45;13.50;99.90
46356;DHT22;32066;49.474;11.106;2024-02-15T10:47:14;13.60;99.90
46356;DHT22;32066;49.474;11.106;2024-02-15T10:49:45;13.60;99.90
46356;DHT22;32066;49.474;11.106;2024-02-15T10:52:17;13.70;99.90
46356;DHT22;32066;49.474;11.106;2024-02-15T10:54:52;13.70;99.90
46356;DHT22;32066;49.474;11.106;2024-02-15T10:57:25;13.80;99.90
46356;DHT22;32066;49.474;11.106;2024-02-15T10:59:55;13.80;99.90
46356;DHT22;32066;49.474;11.106;2024-02-15T11:02:28;13.90;99.90
46356;DHT22;32066;49.474;11.106;2024-02-15T11:05:02;14.00;99.90
46356;DHT22;32066;49.474;11.106;2024-02-15T11:07:37;14.00;99.90
46356;DHT22;32066;49.474;11.106;2024-02-15T11:10:07;14.10;99.90
46356;DHT22;32066;49.474;11.106;2024-02-15T11:12:36;14.30;99.90
46356;DHT22;32066;49.474;11.106;2024-02-15T11:15:08;14.40;99.90
46356;DHT22;32066;49.474;11.106;2024-02-15T11:17:48;14.60;99.90
46356;DHT22;32066;49.474;11.106;2024-02-15T11:20:47;14.80;99.90
46356;DHT22;32066;49.474;11.106;2024-02-15T11:23:28;15.00;99.90
46356;DHT22;32066;49.474;11.106;2024-02-15T11:25:57;15.20;99.90
46356;DHT22;32066;49.474;11.106;2024-02-15T11:28:43;15.40;99.90
46356;DHT22;32066;49.474;11.106;2024-02-15T11:34:42;15.80;99.90
46356;DHT22;32066;49.474;11.106;2024-02-15T11:37:09;16.00;99.90
46356;DHT22;32066;49.474;11.106;2024-02-15T11:39:43;16.10;99.90
46356;DHT22;32066;49.474;11.106;2024-02-15T11:42:28;16.20;99.90
46356;DHT22;32066;49.474;11.106;2024-02-15T11:45:03;16.40;99.90
46356;DHT22;32066;49.474;11.106;2024-02-15T11:47:37;16.60;99.90
46356;DHT22;32066;49.474;11.106;2024-02-15T11:50:09;16.80;99.90
46356;DHT22;32066;49.474;11.106;2024-02-15T11:52:40;17.00;99.90
46356;DHT22;32066;49.474;11.106;2024-02-15T11:55:12;17.10;99.90
46356;DHT22;32066;49.474;11.106;2024-02-15T11:57:41;17.20;99.90
46356;DHT22;32066;49.474;11.106;2024-02-15T12:00:26;17.40;99.90
46356;DHT22;32066;49.474;11.106;2024-02-15T12:03:08;17.50;99.90
46356;DHT22;32066;49.474;11.106;2024-02-15T12:05:49;17.60;99.60
46356;DHT22;32066;49.474;11.106;2024-02-15T12:08:31;17.70;99.30
46356;DHT22;32066;49.474;11.106;2024-02-15T12:11:16;17.90;99.30
46356;DHT22;32066;49.474;11.106;2024-02-15T12:13:57;18.10;99.10
46356;DHT22;32066;49.474;11.106;2024-02-15T12:16:38;18.10;98.70
46356;DHT22;32066;49.474;11.106;2024-02-15T12:19:19;18.30;98.50
46356;DHT22;32066;49.474;11.106;2024-02-15T12:21:49;18.50;98.40
46356;DHT22;32066;49.474;11.106;2024-02-15T12:24:18;18.70;98.30
46356;DHT22;32066;49.474;11.106;2024-02-15T12:26:59;18.90;98.00
46356;DHT22;32066;49.474;11.106;2024-02-15T12:29:28;19.10;97.70
46356;DHT22;32066;49.474;11.106;2024-02-15T12:31:58;19.30;97.30
46356;DHT22;32066;49.474;11.106;2024-02-15T12:34:29;19.50;97.00
46356;DHT22;32066;49.474;11.106;2024-02-15T12:37:07;19.70;96.70
46356;DHT22;32066;49.474;11.106;2024-02-15T12:39:37;19.90;96.20
46356;DHT22;32066;49.474;11.106;2024-02-15T12:42:09;20.00;95.70
46356;DHT22;32066;49.474;11.106;2024-02-15T12:44:44;20.20;95.50
46356;DHT22;32066;49.474;11.106;2024-02-15T12:47:20;20.30;95.00
46356;DHT22;32066;49.474;11.106;2024-02-15T12:49:50;20.40;94.40
46356;DHT22;32066;49.474;11.106;2024-02-15T12:52:35;20.60;94.40
46356;DHT22;32066;49.474;11.106;2024-02-15T12:55:09;20.70;93.90
46356;DHT22;32066;49.474;11.106;2024-02-15T12:57:42;20.90;93.40
46356;DHT22;32066;49.474;11.106;2024-02-15T13:00:14;21.00;92.90
46356;DHT22;32066;49.474;11.106;2024-02-15T13:02:47;21.10;92.30
46356;DHT22;32066;49.474;11.106;2024-02-15T13:05:16;21.30;92.10
46356;DHT22;32066;49.474;11.106;2024-02-15T13:07:47;21.40;91.80
46356;DHT22;32066;49.474;11.106;2024-02-15T13:10:17;21.50;91.30
46356;DHT22;32066;49.474;11.106;2024-02-15T13:12:48;21.60;91.80
46356;DHT22;32066;49.474;11.106;2024-02-15T13:15:17;21.70;91.60
46356;DHT22;32066;49.474;11.106;2024-02-15T13:17:47;21.80;91.50
46356;DHT22;32066;49.474;11.106;2024-02-15T13:20:17;21.90;91.20
46356;DHT22;32066;49.474;11.106;2024-02-15T13:22:53;22.00;91.10
46356;DHT22;32066;49.474;11.106;2024-02-15T13:25:25;22.00;90.60
46356;DHT22;32066;49.474;11.106;2024-02-15T13:27:57;22.10;90.00
46356;DHT22;32066;49.474;11.106;2024-02-15T13:30:25;22.10;90.10
46356;DHT22;32066;49.474;11.106;2024-02-15T13:32:56;22.20;89.30
46356;DHT22;32066;49.474;11.106;2024-02-15T13:35:24;22.30;88.70
46356;DHT22;32066;49.474;11.106;2024-02-15T13:37:54;22.30;88.80
46356;DHT22;32066;49.474;11.106;2024-02-15T13:40:24;22.50;88.00
46356;DHT22;32066;49.474;11.106;2024-02-15T13:42:57;22.40;89.20
46356;DHT22;32066;49.474;11.106;2024-02-15T13:45:31;22.40;89.40
46356;DHT22;32066;49.474;11.106;2024-02-15T13:48:04;22.50;89.20
46356;DHT22;32066;49.474;11.106;2024-02-15T13:50:33;22.50;89.00
46356;DHT22;32066;49.474;11.106;2024-02-15T13:53:03;22.50;88.70
46356;DHT22;32066;49.474;11.106;2024-02-15T13:55:32;22.50;88.40
46356;DHT22;32066;49.474;11.106;2024-02-15T13:58:04;22.50;88.00
46356;DHT22;32066;49.474;11.106;2024-02-15T14:00:33;22.40;88.10
46356;DHT22;32066;49.474;11.106;2024-02-15T14:03:03;22.40;87.90
46356;DHT22;32066;49.474;11.106;2024-02-15T14:05:32;22.30;87.80
46356;DHT22;32066;49.474;11.106;2024-02-15T14:08:01;22.30;88.00
46356;DHT22;32066;49.474;11.106;2024-02-15T14:10:32;22.30;88.40
46356;DHT22;32066;49.474;11.106;2024-02-15T14:13:05;22.30;88.10
46356;DHT22;32066;49.474;11.106;2024-02-15T14:15:35;22.20;88.00
46356;DHT22;32066;49.474;11.106;2024-02-15T14:18:04;22.20;88.00
46356;DHT22;32066;49.474;11.106;2024-02-15T14:20:33;22.20;88.10
46356;DHT22;32066;49.474;11.106;2024-02-15T14:23:02;22.10;87.70
46356;DHT22;32066;49.474;11.106;2024-02-15T14:25:32;22.00;88.20
46356;DHT22;32066;49.474;11.106;2024-02-15T14:28:03;22.00;87.40
46356;DHT22;32066;49.474;11.106;2024-02-15T14:30:33;22.00;87.10
46356;DHT22;32066;49.474;11.106;2024-02-15T14:33:14;21.90;87.60
46356;DHT22;32066;49.474;11.106;2024-02-15T14:35:45;21.80;87.00
46356;DHT22;32066;49.474;11.106;2024-02-15T14:38:14;21.80;87.20
46356;DHT22;32066;49.474;11.106;2024-02-15T14:40:47;21.70;87.30
46356;DHT22;32066;49.474;11.106;2024-02-15T14:43:21;21.70;87.20
46356;DHT22;32066;49.474;11.106;2024-02-15T14:45:52;21.60;87.10
46356;DHT22;32066;49.474;11.106;2024-02-15T14:48:21;21.60;87.10
46356;DHT22;32066;49.474;11.106;2024-02-15T14:50:50;21.60;87.40
46356;DHT22;32066;49.474;11.106;2024-02-15T14:53:19;21.50;87.10
46356;DHT22;32066;49.474;11.106;2024-02-15T14:55:48;21.50;87.60
46356;DHT22;32066;49.474;11.106;2024-02-15T14:58:17;21.40;87.50
46356;DHT22;32066;49.474;11.106;2024-02-15T15:00:50;21.40;88.00
46356;DHT22;32066;49.474;11.106;2024-02-15T15:03:19;21.40;87.70
46356;DHT22;32066;49.474;11.106;2024-02-15T15:05:48;21.40;87.60
46356;DHT22;32066;49.474;11.106;2024-02-15T15:08:30;21.40;88.10
46356;DHT22;32066;49.474;11.106;2024-02-15T15:11:22;21.40;88.00
46356;DHT22;32066;49.474;11.106;2024-02-15T15:14:04;21.40;87.90
46356;DHT22;32066;49.474;11.106;2024-02-15T15:16:35;21.50;87.60
46356;DHT22;32066;49.474;11.106;2024-02-15T15:19:04;21.50;87.10
46356;DHT22;32066;49.474;11.106;2024-02-15T15:21:33;21.50;87.30
46356;DHT22;32066;49.474;11.106;2024-02-15T15:24:02;21.50;86.70
46356;DHT22;32066;49.474;11.106;2024-02-15T15:26:31;21.50;87.20
46356;DHT22;32066;49.474;11.106;2024-02-15T15:28:59;21.50;87.00
46356;DHT22;32066;49.474;11.106;2024-02-15T15:31:28;21.40;87.20
46356;DHT22;32066;49.474;11.106;2024-02-15T15:33:59;21.40;87.40
46356;DHT22;32066;49.474;11.106;2024-02-15T15:36:28;21.40;87.50
46356;DHT22;32066;49.474;11.106;2024-02-15T15:38:56;21.30;87.10
46356;DHT22;32066;49.474;11.106;2024-02-15T15:41:26;21.30;87.30
46356;DHT22;32066;49.474;11.106;2024-02-15T15:43:55;21.20;87.40
46356;DHT22;32066;49.474;11.106;2024-02-15T15:46:24;21.10;87.60